Time;durP1;ratioP1;P1;durP2;ratioP2;P2;SDS_P1;SDS_P2;PMS_P1;PMS_P2;Temp;Humidity;BMP_temperature;BMP_pressure;BME280_temperature;BME280_humidity;BME280_pressure;Samples;Min_cycle;Max_cycle;Signal;HPM_P1;HPM_P2
2021/06/24 00:01:54;;;;;;;11.00;2.60;;;12.50;79.60;;;;;;5032467;28;20477;-72
2021/06/24 00:04:20;;;;;;;10.45;2.40;;;12.40;80.40;;;;;;5032490;28;20025;-73
2021/06/24 00:06:46;;;;;;;11.48;2.80;;;12.30;80.90;;;;;;5032480;28;20029;-74
2021/06/24 00:09:12;;;;;;;7.95;2.70;;;12.30;80.90;;;;;;5034659;28;20033;-74
2021/06/24 00:11:37;;;;;;;6.88;2.22;;;12.40;80.90;;;;;;5035933;28;20030;-74
2021/06/24 00:14:03;;;;;;;9.68;2.80;;;12.60;80.40;;;;;;5035922;28;20071;-75
2021/06/24 00:16:30;;;;;;;7.82;2.20;;;12.70;78.80;;;;;;5035891;28;20457;-73
2021/06/24 00:18:56;;;;;;;7.80;2.25;;;12.70;78.20;;;;;;5035778;28;20021;-72
2021/06/24 00:21:22;;;;;;;9.80;2.38;;;12.70;78.00;;;;;;5035918;28;20027;-73
2021/06/24 00:23:48;;;;;;;;;;;12.80;77.50;;;;;;5036160;28;20033;-75
2021/06/24 00:26:13;;;;;;;6.95;2.20;;;12.80;77.00;;;;;;5035681;28;19909;-73
2021/06/24 00:28:39;;;;;;;8.50;2.30;;;12.90;76.70;;;;;;5035529;28;20471;-74
2021/06/24 00:31:05;;;;;;;8.13;2.72;;;12.80;77.00;;;;;;5035620;28;20057;-73
2021/06/24 00:33:31;;;;;;;13.45;2.78;;;12.70;77.60;;;;;;5035559;28;20033;-72
2021/06/24 00:35:57;;;;;;;9.35;2.30;;;12.30;78.80;;;;;;5035540;28;20048;-73
2021/06/24 00:38:23;;;;;;;9.20;2.85;;;12.10;80.00;;;;;;5035537;28;20174;-74
2021/06/24 00:40:49;;;;;;;10.55;2.70;;;12.20;80.00;;;;;;5035437;28;20033;-74
2021/06/24 00:43:17;;;;;;;10.88;2.30;;;12.10;80.50;;;;;;5035323;28;20025;-72
2021/06/24 00:45:44;;;;;;;10.40;3.00;;;12.30;80.50;;;;;;5034046;28;20049;-73
2021/06/24 00:48:10;;;;;;;13.35;3.17;;;12.30;79.80;;;;;;5035413;28;20021;-72
2021/06/24 00:50:38;;;;;;;10.27;2.60;;;12.30;79.80;;;;;;5035241;28;20014;-73
2021/06/24 00:53:04;;;;;;;7.63;2.75;;;12.30;80.10;;;;;;5035242;28;20021;-73
2021/06/24 00:55:40;;;;;;;9.32;2.55;;;12.40;78.90;;;;;;5035120;28;20026;-72
2021/06/24 00:58:20;;;;;;;10.57;2.83;;;12.60;78.10;;;;;;5035469;28;20025;-73
2021/06/24 01:00:48;;;;;;;11.43;3.25;;;12.50;79.00;;;;;;5035165;28;20088;-72
2021/06/24 01:03:15;;;;;;;10.40;3.08;;;12.50;79.30;;;;;;5034940;28;20025;-73
2021/06/24 01:05:43;;;;;;;7.65;2.38;;;12.30;80.40;;;;;;5034977;28;20481;-73
2021/06/24 01:08:11;;;;;;;7.38;2.72;;;12.50;78.60;;;;;;5034882;28;20021;-74
2021/06/24 01:10:38;;;;;;;9.07;2.75;;;12.70;78.00;;;;;;5034861;28;20022;-72
2021/06/24 01:13:05;;;;;;;11.77;3.40;;;12.80;77.30;;;;;;5035270;28;20064;-74
2021/06/24 01:15:31;;;;;;;9.07;2.70;;;12.70;77.00;;;;;;5034705;28;20029;-74
2021/06/24 01:18:01;;;;;;;;;;;12.50;77.60;;;;;;5035084;28;20025;-75
2021/06/24 01:20:31;;;;;;;10.43;3.00;;;12.30;79.30;;;;;;5034378;28;20284;-74
2021/06/24 01:22:58;;;;;;;10.48;2.78;;;12.20;79.40;;;;;;5034509;28;20029;-75
2021/06/24 01:25:24;;;;;;;9.27;2.88;;;12.00;80.40;;;;;;5034582;28;20092;-75
2021/06/24 01:27:59;;;;;;;9.30;2.72;;;12.20;79.70;;;;;;5034551;28;20017;-73
2021/06/24 01:30:25;;;;;;;11.48;3.38;;;12.20;79.10;;;;;;5034478;28;20040;-74
2021/06/24 01:32:52;;;;;;;11.73;3.60;;;12.40;79.10;;;;;;5034422;28;20025;-72
2021/06/24 01:35:27;;;;;;;7.18;2.72;;;12.30;78.50;;;;;;5034452;28;20022;-74
2021/06/24 01:38:02;;;;;;;7.47;2.55;;;12.10;79.30;;;;;;5033981;28;20053;-74
2021/06/24 01:40:29;;;;;;;7.90;3.05;;;12.30;79.00;;;;;;5034308;28;20169;-73
2021/06/24 01:42:56;;;;;;;11.05;3.10;;;12.30;78.30;;;;;;5034115;28;20072;-73
2021/06/24 01:45:22;;;;;;;;;;;12.10;79.10;;;;;;5034555;28;20083;-72
2021/06/24 01:47:48;;;;;;;12.07;3.40;;;12.00;80.40;;;;;;5034127;28;19909;-73
2021/06/24 01:50:14;;;;;;;11.73;3.50;;;11.70;81.80;;;;;;5034341;28;20013;-74
2021/06/24 01:52:42;;;;;;;9.57;3.25;;;11.60;82.60;;;;;;5033994;28;20083;-75
2021/06/24 01:55:09;;;;;;;10.45;3.40;;;11.90;81.40;;;;;;5034007;28;20048;-72
2021/06/24 01:57:36;;;;;;;12.73;3.50;;;12.10;80.30;;;;;;5033888;28;20092;-72
2021/06/24 02:00:06;;;;;;;9.57;3.45;;;12.10;80.40;;;;;;5034040;28;20032;-73
2021/06/24 02:02:31;;;;;;;8.45;3.10;;;12.20;80.30;;;;;;5033769;28;20037;-73
2021/06/24 02:04:57;;;;;;;9.32;3.00;;;12.10;80.20;;;;;;5033849;28;20382;-73
2021/06/24 02:07:23;;;;;;;11.10;3.55;;;12.10;79.90;;;;;;5033838;28;20343;-74
2021/06/24 02:09:48;;;;;;;8.68;3.25;;;12.20;79.60;;;;;;5033939;28;20135;-73
2021/06/24 02:12:15;;;;;;;12.15;4.05;;;12.20;79.50;;;;;;5033975;28;20029;-73
2021/06/24 02:14:41;;;;;;;12.18;3.67;;;12.10;79.90;;;;;;5033706;28;20014;-72
2021/06/24 02:17:07;;;;;;;10.60;3.80;;;11.90;81.00;;;;;;5033572;28;20108;-73
2021/06/24 02:19:33;;;;;;;9.82;3.53;;;11.70;81.40;;;;;;5032270;28;20033;-72
2021/06/24 02:21:59;;;;;;;8.20;3.25;;;11.90;81.10;;;;;;5033503;28;20021;-74
2021/06/24 02:24:24;;;;;;;9.32;3.00;;;12.00;80.20;;;;;;5033441;28;20033;-72
2021/06/24 02:26:50;;;;;;;10.75;3.25;;;12.00;80.10;;;;;;5032472;28;20057;-72
2021/06/24 02:29:16;;;;;;;8.20;3.10;;;12.10;79.60;;;;;;5032218;28;20021;-73
2021/06/24 02:31:41;;;;;;;8.88;2.72;;;12.10;77.00;;;;;;5032921;28;20029;-72
2021/06/24 02:34:07;;;;;;;7.60;2.70;;;12.10;75.90;;;;;;5033441;28;20021;-73
2021/06/24 02:36:33;;;;;;;6.80;2.50;;;12.10;75.80;;;;;;5033148;28;20049;-72
2021/06/24 02:38:59;;;;;;;;;;;11.90;76.70;;;;;;5033720;28;20032;-75
2021/06/24 02:41:25;;;;;;;7.65;2.75;;;11.80;77.10;;;;;;5033270;28;20319;-75
2021/06/24 02:43:50;;;;;;;8.07;2.72;;;11.90;75.60;;;;;;5033137;28;20120;-73
2021/06/24 02:46:17;;;;;;;6.57;2.28;;;11.50;77.10;;;;;;5033693;28;20033;-74
2021/06/24 02:48:42;;;;;;;;;;;11.40;78.00;;;;;;5033587;28;20025;-75
2021/06/24 02:51:08;;;;;;;8.13;2.70;;;11.30;79.30;;;;;;5033123;28;19916;-74
2021/06/24 02:53:34;;;;;;;10.00;3.13;;;11.30;79.10;;;;;;5033251;28;20187;-75
2021/06/24 02:56:00;;;;;;;10.93;3.53;;;11.50;78.60;;;;;;5033134;28;20037;-73
2021/06/24 02:58:25;;;;;;;8.93;3.42;;;11.40;79.10;;;;;;5033129;28;20486;-73
2021/06/24 03:00:51;;;;;;;8.52;2.90;;;11.40;79.40;;;;;;5033114;28;20049;-72
2021/06/24 03:03:17;;;;;;;8.55;3.53;;;11.40;79.30;;;;;;5032957;28;20022;-73
2021/06/24 03:05:43;;;;;;;10.30;3.97;;;11.30;79.80;;;;;;5033032;28;20030;-73
2021/06/24 03:08:09;;;;;;;11.07;4.00;;;11.40;80.50;;;;;;5033337;28;20068;-73
2021/06/24 03:10:36;;;;;;;11.70;3.63;;;11.20;81.60;;;;;;5033321;28;20442;-73
2021/06/24 03:13:01;;;;;;;9.70;3.33;;;11.10;82.20;;;;;;5033096;28;20077;-72
2021/06/24 03:15:31;;;;;;;11.00;3.97;;;11.40;80.80;;;;;;5032899;28;20489;-75
2021/06/24 03:17:57;;;;;;;9.05;3.58;;;11.30;81.90;;;;;;5032866;28;20108;-71
2021/06/24 03:20:27;;;;;;;10.80;3.85;;;11.50;80.60;;;;;;5033010;28;20572;-72
2021/06/24 03:22:57;;;;;;;13.90;4.03;;;11.70;79.60;;;;;;5031235;28;20106;-72
2021/06/24 03:25:24;;;;;;;11.10;4.28;;;11.70;80.20;;;;;;5032919;28;20056;-73
2021/06/24 03:27:52;;;;;;;8.82;3.33;;;11.90;80.00;;;;;;5032856;28;20502;-72
2021/06/24 03:30:19;;;;;;;10.73;4.07;;;12.00;79.60;;;;;;5031554;28;20033;-74
2021/06/24 03:32:45;;;;;;;10.13;3.90;;;12.10;79.80;;;;;;5032726;28;20398;-75
2021/06/24 03:35:11;;;;;;;11.43;4.70;;;12.10;80.00;;;;;;5032780;28;20030;-72
2021/06/24 03:37:37;;;;;;;;;;;12.00;79.90;;;;;;5032758;28;20123;-73
2021/06/24 03:40:07;;;;;;;9.10;3.30;;;11.90;79.90;;;;;;5031392;28;19908;-73
2021/06/24 03:42:34;;;;;;;10.93;3.40;;;11.80;78.50;;;;;;5033933;28;20061;-74
2021/06/24 03:44:59;;;;;;;10.68;3.97;;;11.60;79.60;;;;;;5036479;28;20358;-73
2021/06/24 03:47:25;;;;;;;13.68;5.32;;;11.30;81.50;;;;;;5036426;28;20021;-72
2021/06/24 03:49:51;;;;;;;11.88;5.03;;;11.10;82.80;;;;;;5036437;28;20026;-73
2021/06/24 03:52:17;;;;;;;9.80;3.70;;;11.00;84.10;;;;;;5036346;28;20109;-73
2021/06/24 03:54:42;;;;;;;9.95;3.60;;;11.10;83.10;;;;;;5036516;28;20018;-73
2021/06/24 03:57:08;;;;;;;10.13;3.65;;;11.40;80.40;;;;;;5036208;28;20095;-72
2021/06/24 03:59:34;;;;;;;23.13;4.95;;;11.30;80.00;;;;;;5036215;28;20083;-72
2021/06/24 04:02:00;;;;;;;13.80;4.97;;;11.00;81.80;;;;;;5036577;28;20029;-73
2021/06/24 04:04:25;;;;;;;8.75;3.60;;;10.80;83.40;;;;;;5036055;28;20025;-72
2021/06/24 04:06:51;;;;;;;14.50;4.35;;;11.00;83.30;;;;;;5036203;28;20033;-73
2021/06/24 04:09:17;;;;;;;10.15;3.53;;;11.00;83.10;;;;;;5036082;28;20559;-72
2021/06/24 04:11:43;;;;;;;12.88;3.70;;;11.10;81.80;;;;;;5034703;28;20030;-72
2021/06/24 04:14:09;;;;;;;;;;;11.30;79.50;;;;;;5036236;28;20033;-75
2021/06/24 04:16:34;;;;;;;9.38;3.45;;;11.40;77.60;;;;;;5036227;28;19932;-71
2021/06/24 04:19:00;;;;;;;15.35;3.65;;;11.50;77.40;;;;;;5036108;28;20021;-74
2021/06/24 04:21:26;;;;;;;16.65;4.03;;;11.30;78.60;;;;;;5036011;28;20025;-74
2021/06/24 04:23:52;;;;;;;9.07;3.88;;;11.40;79.50;;;;;;5034399;28;20033;-72
2021/06/24 04:26:17;;;;;;;10.25;4.47;;;11.40;79.50;;;;;;5035676;28;20497;-72
2021/06/24 04:28:43;;;;;;;12.90;4.60;;;11.50;79.70;;;;;;5035642;28;20371;-72
2021/06/24 04:31:10;;;;;;;17.92;4.93;;;11.50;80.30;;;;;;5035605;28;20029;-73
2021/06/24 04:33:36;;;;;;;10.27;4.40;;;11.60;81.00;;;;;;5034114;28;20037;-74
2021/06/24 04:36:02;;;;;;;10.23;4.40;;;11.60;81.50;;;;;;5035406;28;20029;-73
2021/06/24 04:38:27;;;;;;;8.93;4.20;;;11.80;81.00;;;;;;5035578;28;20482;-71
2021/06/24 04:40:53;;;;;;;13.55;5.32;;;11.80;80.70;;;;;;5035405;28;20508;-73
2021/06/24 04:43:19;;;;;;;15.55;5.10;;;11.90;81.10;;;;;;5035403;28;20036;-73
2021/06/24 04:45:44;;;;;;;17.00;6.30;;;12.10;81.00;;;;;;5035342;28;20401;-73
2021/06/24 04:48:10;;;;;;;14.38;5.65;;;12.30;80.20;;;;;;5035349;28;20033;-72
2021/06/24 04:50:36;;;;;;;12.43;4.97;;;12.20;81.00;;;;;;5035246;28;20528;-72
2021/06/24 04:53:03;;;;;;;9.52;4.20;;;12.20;79.70;;;;;;5035136;28;20041;-72
2021/06/24 04:55:38;;;;;;;12.90;5.78;;;12.40;79.60;;;;;;5034732;28;20022;-74
2021/06/24 04:58:08;;;;;;;14.88;5.57;;;12.50;79.90;;;;;;5035047;28;20029;-74
2021/06/24 05:00:35;;;;;;;13.55;5.53;;;12.50;80.30;;;;;;5035549;28;20378;-73
2021/06/24 05:03:02;;;;;;;15.13;6.40;;;12.30;81.30;;;;;;5034982;28;20115;-73
2021/06/24 05:05:28;;;;;;;14.88;6.70;;;12.40;81.20;;;;;;5034952;28;20033;-73
2021/06/24 05:07:53;;;;;;;20.02;8.63;;;12.50;81.70;;;;;;5034913;28;20113;-73
2021/06/24 05:10:20;;;;;;;25.23;10.38;;;12.50;82.30;;;;;;5035192;28;20025;-73
2021/06/24 05:12:47;;;;;;;23.08;9.68;;;12.30;84.30;;;;;;5034804;28;20436;-73
2021/06/24 05:15:13;;;;;;;20.25;9.27;;;12.20;85.40;;;;;;5034758;28;20469;-72
2021/06/24 05:17:39;;;;;;;21.15;8.93;;;12.40;85.00;;;;;;5034659;28;20021;-71
2021/06/24 05:20:10;;;;;;;25.90;10.25;;;12.80;83.50;;;;;;5035025;28;20018;-72
2021/06/24 05:22:36;;;;;;;22.27;9.75;;;13.00;83.80;;;;;;5034758;28;20033;-73
2021/06/24 05:25:04;;;;;;;27.08;10.60;;;12.90;83.60;;;;;;5034613;28;20060;-73
2021/06/24 05:27:30;;;;;;;36.35;11.27;;;13.30;82.50;;;;;;5034448;28;20375;-74
2021/06/24 05:29:56;;;;;;;30.88;11.52;;;13.30;82.50;;;;;;5034471;28;20032;-74
2021/06/24 05:32:21;;;;;;;23.65;11.15;;;13.40;83.30;;;;;;5034348;28;20040;-73
2021/06/24 05:34:47;;;;;;;30.20;11.15;;;13.50;82.70;;;;;;5034400;28;20037;-73
2021/06/24 05:37:13;;;;;;;57.15;13.70;;;13.70;82.20;;;;;;5034171;28;20401;-73
2021/06/24 05:39:39;;;;;;;22.02;10.90;;;13.70;82.20;;;;;;5034331;28;20033;-72
2021/06/24 05:42:05;;;;;;;26.73;12.35;;;13.60;83.00;;;;;;5034511;28;20087;-73
2021/06/24 05:44:30;;;;;;;25.33;12.80;;;13.70;83.00;;;;;;5032927;28;20124;-73
2021/06/24 05:46:56;;;;;;;27.50;12.30;;;13.60;83.50;;;;;;5034115;28;20021;-73
2021/06/24 05:49:22;;;;;;;29.63;13.10;;;13.50;85.20;;;;;;5034291;28;20071;-73
2021/06/24 05:51:48;;;;;;;37.08;16.52;;;13.90;84.20;;;;;;5034225;28;20018;-75
2021/06/24 05:54:14;;;;;;;;;;;14.00;83.20;;;;;;5034214;28;20167;-71
2021/06/24 05:56:43;;;;;;;25.17;13.45;;;13.90;83.60;;;;;;5034067;28;19940;-74
2021/06/24 05:59:09;;;;;;;36.75;16.17;;;13.90;84.50;;;;;;5033853;28;20035;-73
2021/06/24 06:01:37;;;;;;;31.63;17.15;;;14.00;84.50;;;;;;5033964;28;20398;-74
2021/06/24 06:04:03;;;;;;;30.67;16.83;;;14.00;84.00;;;;;;5033787;28;20022;-73
2021/06/24 06:06:28;;;;;;;30.85;15.88;;;14.20;84.10;;;;;;5032880;28;20021;-72
2021/06/24 06:08:54;;;;;;;28.65;15.77;;;14.40;82.90;;;;;;5033750;28;20037;-73
2021/06/24 06:11:20;;;;;;;30.08;16.90;;;14.60;82.90;;;;;;5033755;28;20047;-74
2021/06/24 06:13:45;;;;;;;30.15;16.50;;;14.80;82.10;;;;;;5033589;28;20108;-75
2021/06/24 06:16:11;;;;;;;;;;;15.00;81.60;;;;;;5034074;28;20021;-73
2021/06/24 06:18:37;;;;;;;30.73;17.33;;;15.20;80.70;;;;;;5033597;28;19912;-72
2021/06/24 06:21:03;;;;;;;82.53;20.17;;;15.40;80.00;;;;;;5033718;28;20026;-73
2021/06/24 06:23:29;;;;;;;27.15;17.42;;;15.40;79.50;;;;;;5033457;28;20375;-71
2021/06/24 06:25:55;;;;;;;;;;;15.30;79.80;;;;;;5033865;28;20497;-73
2021/06/24 06:28:23;;;;;;;31.63;17.83;;;15.40;80.00;;;;;;5033313;28;19912;-73
2021/06/24 06:30:50;;;;;;;38.65;21.25;;;15.40;79.90;;;;;;5033409;28;20025;-72
2021/06/24 06:33:17;;;;;;;28.58;17.08;;;15.30;80.00;;;;;;5033309;28;20393;-73
2021/06/24 06:35:44;;;;;;;44.10;23.50;;;15.70;79.30;;;;;;5033295;28;20022;-73
2021/06/24 06:38:10;;;;;;;32.38;19.23;;;15.50;79.00;;;;;;5033089;28;20050;-75
2021/06/24 06:40:36;;;;;;;37.22;22.58;;;15.30;81.10;;;;;;5033217;28;20088;-73
2021/06/24 06:43:02;;;;;;;35.13;20.05;;;15.30;80.60;;;;;;5033265;28;20112;-74
2021/06/24 06:45:30;;;;;;;30.33;19.17;;;15.30;81.30;;;;;;5033179;28;20100;-73
2021/06/24 06:47:56;;;;;;;35.13;20.52;;;15.70;79.30;;;;;;5033213;28;20026;-73
2021/06/24 06:50:21;;;;;;;;;;;15.90;78.40;;;;;;5033582;28;20025;-71
2021/06/24 06:52:47;;;;;;;35.05;19.35;;;15.90;78.20;;;;;;5033129;28;19924;-73
2021/06/24 06:55:13;;;;;;;;;;;15.90;79.00;;;;;;5033554;28;20083;-74
2021/06/24 06:57:39;;;;;;;30.63;19.02;;;16.10;78.50;;;;;;5033116;28;19905;-75
2021/06/24 07:00:06;;;;;;;;;;;16.50;76.90;;;;;;5033446;28;20025;-74
2021/06/24 07:02:32;;;;;;;32.70;19.10;;;16.80;75.60;;;;;;5032979;28;19905;-73
2021/06/24 07:04:57;;;;;;;30.95;20.33;;;16.90;74.60;;;;;;5033509;28;20025;-72
2021/06/24 07:07:23;;;;;;;;;;;16.80;75.20;;;;;;5033442;28;20021;-74
2021/06/24 07:09:49;;;;;;;29.80;18.50;;;16.40;76.30;;;;;;5032996;28;20328;-74
2021/06/24 07:12:15;;;;;;;32.63;20.25;;;16.50;77.00;;;;;;5032904;28;20528;-73
2021/06/24 07:14:41;;;;;;;31.55;18.73;;;16.30;77.40;;;;;;5033047;28;20385;-74
2021/06/24 07:17:06;;;;;;;30.58;19.20;;;16.70;76.60;;;;;;5033400;28;20025;-74
2021/06/24 07:19:32;;;;;;;29.83;18.95;;;17.10;75.20;;;;;;5036926;28;20021;-74
2021/06/24 07:21:58;;;;;;;31.05;20.50;;;17.40;73.60;;;;;;5036947;28;20025;-75
2021/06/24 07:24:24;;;;;;;;;;;17.30;74.60;;;;;;5036155;28;20028;-73
2021/06/24 07:26:49;;;;;;;30.10;19.50;;;17.40;74.60;;;;;;5036825;28;19911;-74
2021/06/24 07:29:15;;;;;;;27.52;18.25;;;17.80;74.30;;;;;;5036780;28;20079;-73
2021/06/24 07:31:41;;;;;;;31.35;18.42;;;18.00;73.80;;;;;;5036758;28;20108;-72
2021/06/24 07:34:07;;;;;;;27.48;18.27;;;18.60;72.20;;;;;;5036607;28;20038;-73
2021/06/24 07:36:34;;;;;;;27.17;20.38;;;19.00;70.10;;;;;;5036418;28;20478;-75
2021/06/24 07:39:00;;;;;;;21.65;17.00;;;18.80;69.10;;;;;;5036581;28;20029;-73
2021/06/24 07:41:25;;;;;;;23.50;17.27;;;19.20;68.80;;;;;;5036455;28;20370;-74
2021/06/24 07:43:52;;;;;;;27.67;19.75;;;19.60;67.40;;;;;;5036531;28;20024;-73
2021/06/24 07:46:19;;;;;;;25.27;18.70;;;19.40;66.60;;;;;;5036586;28;20009;-73
2021/06/24 07:48:47;;;;;;;22.80;16.77;;;19.00;67.40;;;;;;5036517;28;20486;-75
2021/06/24 07:51:13;;;;;;;31.30;19.70;;;19.40;66.30;;;;;;5035083;28;20375;-75
2021/06/24 07:53:42;;;;;;;23.45;16.23;;;19.40;65.90;;;;;;5036233;28;20036;-74
2021/06/24 07:56:14;;;;;;;24.63;17.88;;;19.30;66.70;;;;;;5036307;28;20075;-74
2021/06/24 07:58:41;;;;;;;22.23;15.73;;;19.40;67.00;;;;;;5036424;28;20500;-72
2021/06/24 08:01:08;;;;;;;17.70;13.35;;;19.90;66.00;;;;;;5036078;28;20442;-72
2021/06/24 08:03:35;;;;;;;20.50;14.40;;;21.00;63.30;;;;;;5036019;28;20097;-73
2021/06/24 08:06:02;;;;;;;18.30;13.18;;;21.90;59.20;;;;;;5036245;28;20026;-72
2021/06/24 08:08:28;;;;;;;17.90;12.90;;;22.40;57.20;;;;;;5036062;28;20052;-74
2021/06/24 08:10:55;;;;;;;15.95;12.05;;;23.30;55.40;;;;;;5036067;28;20064;-75
2021/06/24 08:13:22;;;;;;;15.77;10.93;;;24.00;52.50;;;;;;5035874;28;20542;-74
2021/06/24 08:15:48;;;;;;;17.83;11.80;;;25.30;50.70;;;;;;5035917;28;20040;-74
2021/06/24 08:18:15;;;;;;;17.17;9.95;;;26.10;47.70;;;;;;5035893;28;20477;-73
2021/06/24 08:20:41;;;;;;;13.75;9.35;;;27.00;46.60;;;;;;5035904;28;20025;-76
2021/06/24 08:23:07;;;;;;;15.32;9.32;;;28.10;45.50;;;;;;5035683;28;20096;-74
2021/06/24 08:25:33;;;;;;;12.95;9.00;;;28.90;43.90;;;;;;5035933;28;20160;-74
2021/06/24 08:27:59;;;;;;;14.57;10.20;;;29.00;43.60;;;;;;5035600;28;20025;-74
2021/06/24 08:30:25;;;;;;;14.23;9.93;;;28.20;42.70;;;;;;5034621;28;20033;-75
2021/06/24 08:32:51;;;;;;;15.13;10.38;;;26.60;45.40;;;;;;5034238;28;20459;-73
2021/06/24 08:35:17;;;;;;;15.32;9.23;;;25.50;47.20;;;;;;5035572;28;20022;-74
2021/06/24 08:37:43;;;;;;;13.27;8.55;;;26.30;46.40;;;;;;5035325;28;20046;-74
2021/06/24 08:40:11;;;;;;;13.57;10.05;;;26.10;46.80;;;;;;5035478;28;20030;-74
2021/06/24 08:42:38;;;;;;;14.23;9.73;;;26.90;45.50;;;;;;5035685;28;20057;-74
2021/06/24 08:45:06;;;;;;;14.27;10.82;;;25.70;47.60;;;;;;5035425;28;20482;-74
2021/06/24 08:47:32;;;;;;;13.68;8.65;;;25.20;47.10;;;;;;5035355;28;20053;-74
2021/06/24 08:50:00;;;;;;;14.65;8.32;;;25.20;48.10;;;;;;5035604;28;20511;-75
2021/06/24 08:52:27;;;;;;;13.30;9.20;;;25.60;47.50;;;;;;5035264;28;20371;-74
2021/06/24 08:54:53;;;;;;;12.05;8.07;;;26.00;47.60;;;;;;5035204;28;20040;-75
2021/06/24 08:57:20;;;;;;;13.43;8.68;;;27.20;45.90;;;;;;5033831;28;20378;-74
2021/06/24 08:59:46;;;;;;;15.07;9.55;;;28.00;44.10;;;;;;5035086;28;20515;-73
2021/06/24 09:02:14;;;;;;;12.93;8.20;;;29.00;42.90;;;;;;5035032;28;20021;-74
2021/06/24 09:04:49;;;;;;;11.93;8.02;;;29.20;42.90;;;;;;5035031;28;20569;-73
2021/06/24 09:07:21;;;;;;;14.20;8.93;;;29.60;41.80;;;;;;5034939;28;20026;-75
2021/06/24 09:09:55;;;;;;;13.27;8.20;;;29.30;41.20;;;;;;5033365;28;20125;-75
2021/06/24 09:12:21;;;;;;;;;;;29.20;42.80;;;;;;5035195;28;20021;-74
2021/06/24 09:14:49;;;;;;;11.05;7.75;;;29.00;41.40;;;;;;5034747;28;20433;-74
2021/06/24 09:17:35;;;;;;;14.02;7.53;;;29.00;41.20;;;;;;5033877;28;20029;-75
2021/06/24 09:20:04;;;;;;;10.32;7.35;;;29.60;41.30;;;;;;5034784;28;20429;-74
2021/06/24 09:22:29;;;;;;;11.05;7.15;;;30.50;40.40;;;;;;5034664;28;20108;-76
2021/06/24 09:24:55;;;;;;;14.40;7.80;;;29.60;39.90;;;;;;5034646;28;20108;-74
2021/06/24 09:27:28;;;;;;;12.23;8.00;;;29.40;40.90;;;;;;5034597;28;20018;-75
2021/06/24 09:30:02;;;;;;;12.13;7.35;;;28.80;40.40;;;;;;5034553;28;20059;-73
2021/06/24 09:32:34;;;;;;;10.80;7.50;;;28.20;41.40;;;;;;5034298;28;20040;-75
2021/06/24 09:35:02;;;;;;;11.60;7.55;;;28.30;41.00;;;;;;5034478;28;20022;-73
2021/06/24 09:37:29;;;;;;;11.70;6.82;;;27.60;41.80;;;;;;5034197;28;20049;-75
2021/06/24 09:39:56;;;;;;;11.43;7.63;;;28.10;42.70;;;;;;5034257;28;20104;-73
2021/06/24 09:42:23;;;;;;;10.85;7.32;;;29.20;40.80;;;;;;5034258;28;20028;-74
2021/06/24 09:44:50;;;;;;;15.52;7.00;;;29.90;40.00;;;;;;5034204;28;20358;-74
2021/06/24 09:47:29;;;;;;;12.27;7.00;;;29.70;39.50;;;;;;5034193;28;20032;-73
2021/06/24 09:50:08;;;;;;;12.90;7.05;;;29.90;39.20;;;;;;5033786;28;20513;-73
2021/06/24 09:52:34;;;;;;;13.48;8.07;;;30.80;38.80;;;;;;5034056;28;20021;-73
2021/06/24 09:55:08;;;;;;;12.90;7.45;;;30.20;39.50;;;;;;5034106;28;20025;-74
2021/06/24 09:57:36;;;;;;;15.95;7.20;;;29.50;40.70;;;;;;5034110;28;20053;-76
2021/06/24 10:00:20;;;;;;;12.10;7.35;;;30.20;38.70;;;;;;5033960;28;20401;-73
2021/06/24 10:03:01;;;;;;;10.10;5.75;;;30.00;38.90;;;;;;5033955;28;20025;-74
2021/06/24 10:05:27;;;;;;;12.00;7.22;;;30.00;38.60;;;;;;5034157;28;20091;-75
2021/06/24 10:07:53;;;;;;;12.15;7.22;;;30.10;38.90;;;;;;5033770;28;20404;-75
2021/06/24 10:10:23;;;;;;;13.38;7.22;;;31.20;37.90;;;;;;5033668;28;20025;-74
2021/06/24 10:12:49;;;;;;;11.45;6.78;;;31.40;37.60;;;;;;5033792;28;20520;-72
2021/06/24 10:15:16;;;;;;;11.40;7.50;;;30.70;38.00;;;;;;5033747;28;20022;-74
2021/06/24 10:17:43;;;;;;;11.75;6.28;;;29.60;39.10;;;;;;5033895;28;20029;-74
2021/06/24 10:20:10;;;;;;;13.00;6.45;;;31.00;38.50;;;;;;5033631;28;20072;-74
2021/06/24 10:22:38;;;;;;;10.57;6.32;;;32.50;36.90;;;;;;5033565;28;20102;-74
2021/06/24 10:25:11;;;;;;;12.35;6.53;;;33.00;34.60;;;;;;5033600;28;20367;-74
2021/06/24 10:27:40;;;;;;;11.52;6.20;;;33.40;34.40;;;;;;5033615;28;20020;-74
2021/06/24 10:30:18;;;;;;;10.23;6.25;;;33.70;34.10;;;;;;5032168;28;20477;-73
2021/06/24 10:32:58;;;;;;;12.80;5.60;;;33.60;34.30;;;;;;5033458;28;20029;-73
2021/06/24 10:35:27;;;;;;;11.35;6.18;;;34.30;33.30;;;;;;5033858;28;20033;-73
2021/06/24 10:37:53;;;;;;;10.55;5.78;;;34.80;31.20;;;;;;5032986;28;20080;-74
2021/06/24 10:40:32;;;;;;;9.43;5.82;;;34.90;32.20;;;;;;5033267;28;20502;-76
2021/06/24 10:43:03;;;;;;;9.43;5.57;;;34.50;32.30;;;;;;5044562;28;20028;-74
2021/06/24 10:45:30;;;;;;;9.77;5.25;;;35.00;32.00;;;;;;5052134;28;20514;-74
2021/06/24 10:47:57;;;;;;;10.55;5.78;;;35.40;31.50;;;;;;5051875;28;20029;-73
2021/06/24 10:50:27;;;;;;;9.25;5.28;;;34.00;32.00;;;;;;5051900;28;20021;-73
2021/06/24 10:53:16;;;;;;;9.48;5.32;;;32.60;33.90;;;;;;5051657;28;20112;-73
2021/06/24 10:55:46;;;;;;;9.63;5.03;;;32.50;35.30;;;;;;5053263;28;20035;-73
2021/06/24 10:58:18;;;;;;;10.95;5.80;;;31.70;34.60;;;;;;5053236;28;20485;-75
2021/06/24 11:00:47;;;;;;;10.68;5.97;;;31.00;35.30;;;;;;5052926;28;20028;-75
2021/06/24 11:03:15;;;;;;;10.60;6.05;;;29.90;36.60;;;;;;5052945;28;20118;-73
2021/06/24 11:05:46;;;;;;;12.20;6.20;;;29.70;38.10;;;;;;5052895;28;20110;-74
2021/06/24 11:08:29;;;;;;;10.82;7.13;;;29.90;37.30;;;;;;5053155;28;20385;-74
2021/06/24 11:11:08;;;;;;;9.10;5.70;;;31.30;35.80;;;;;;5053033;28;20056;-75
2021/06/24 11:13:37;;;;;;;12.52;6.95;;;32.40;34.60;;;;;;5052996;28;20328;-74
2021/06/24 11:16:18;;;;;;;9.60;5.55;;;33.00;33.50;;;;;;5054639;28;20092;-74
2021/06/24 11:19:06;;;;;;;9.10;4.55;;;33.10;33.40;;;;;;5053459;28;20367;-75
2021/06/24 11:21:31;;;;;;;9.48;5.40;;;32.40;34.20;;;;;;5052315;28;20443;-73
2021/06/24 11:24:15;;;;;;;9.48;4.95;;;31.60;35.40;;;;;;5053318;28;20021;-75
2021/06/24 11:26:43;;;;;;;;;;;31.40;33.90;;;;;;5052308;28;20029;-74
2021/06/24 11:29:09;;;;;;;9.65;5.72;;;32.80;32.80;;;;;;5052216;28;19916;-74
2021/06/24 11:32:09;;;;;;;9.07;4.97;;;33.70;32.30;;;;;;5053920;28;20579;-74
2021/06/24 11:34:46;;;;;;;9.20;4.63;;;34.30;31.70;;;;;;5053535;28;20105;-74
2021/06/24 11:37:15;;;;;;;8.50;4.70;;;34.60;32.50;;;;;;5052331;28;20045;-72
2021/06/24 11:39:57;;;;;;;10.05;5.13;;;33.60;33.50;;;;;;5051998;28;20417;-76
2021/06/24 11:42:35;;;;;;;8.43;4.82;;;32.10;35.10;;;;;;5053167;28;20033;-73
2021/06/24 11:45:03;;;;;;;10.05;5.20;;;32.30;35.90;;;;;;5052355;28;20508;-75
2021/06/24 11:47:32;;;;;;;9.50;4.88;;;33.30;34.70;;;;;;5052132;28;20029;-73
2021/06/24 12:04:03;;;;;;;9.20;5.30;;;37.40;29.50;;;;;;5055273;28;20033;-75
2021/06/24 12:06:59;;;;;;;8.57;5.00;;;37.40;28.70;;;;;;5057780;28;20027;-74
2021/06/24 12:09:27;;;;;;;9.32;4.75;;;37.20;29.30;;;;;;5056994;28;20500;-75
2021/06/24 12:11:56;;;;;;;8.63;4.75;;;37.70;28.80;;;;;;5056139;28;20021;-74
2021/06/24 12:14:30;;;;;;;8.75;4.60;;;36.10;29.10;;;;;;5055878;28;20029;-72
2021/06/24 12:17:09;;;;;;;;;;;34.60;30.50;;;;;;5056702;28;20052;-70
2021/06/24 12:19:48;;;;;;;10.30;5.20;;;34.00;31.10;;;;;;5055858;28;20380;-70
2021/06/24 12:22:16;;;;;;;8.57;4.60;;;34.80;30.40;;;;;;5055907;28;20040;-71
2021/06/24 12:24:43;;;;;;;9.88;4.53;;;34.60;30.80;;;;;;5054398;28;20025;-72
2021/06/24 12:27:41;;;;;;;11.40;4.68;;;34.90;31.10;;;;;;5055669;28;20036;-73
2021/06/24 12:30:16;;;;;;;8.82;4.35;;;34.10;30.60;;;;;;5055724;28;20025;-72
2021/06/24 12:32:49;;;;;;;13.38;4.80;;;33.60;31.40;;;;;;5055462;28;20025;-72
2021/06/24 12:35:36;;;;;;;8.55;4.47;;;32.90;32.60;;;;;;5055858;28;20516;-71
2021/06/24 12:38:04;;;;;;;9.68;4.57;;;32.70;32.80;;;;;;5055179;28;20037;-72
2021/06/24 12:40:58;;;;;;;8.38;4.38;;;33.40;32.00;;;;;;5055429;28;20032;-71
2021/06/24 12:43:29;;;;;;;8.32;4.30;;;35.30;31.20;;;;;;5055415;28;20097;-70
2021/06/24 12:45:58;;;;;;;8.18;4.60;;;36.50;29.30;;;;;;5055520;28;20063;-74
2021/06/24 12:48:37;;;;;;;8.15;4.57;;;37.00;29.00;;;;;;5055356;28;20478;-72
2021/06/24 12:51:20;;;;;;;9.70;4.80;;;38.00;28.10;;;;;;5055198;28;20021;-73
2021/06/24 12:53:49;;;;;;;10.02;4.85;;;38.10;28.20;;;;;;5055329;28;20481;-72
2021/06/24 12:56:26;;;;;;;9.95;4.68;;;38.70;27.70;;;;;;5053951;28;20036;-71
2021/06/24 12:58:54;;;;;;;9.25;4.75;;;37.70;28.50;;;;;;5055706;28;20497;-72
2021/06/24 13:01:22;;;;;;;20.25;5.75;;;37.20;29.00;;;;;;5053836;28;20385;-72
2021/06/24 13:03:57;;;;;;;9.20;4.50;;;36.70;29.00;;;;;;5054926;28;20482;-72